createdAt,value
2018-07-04T00:01:34.621Z,71.15
2018-07-04T00:04:23.789Z,70.93
2018-07-04T00:10:10.176Z,71.09
2018-07-04T00:12:50.772Z,72.01
2018-07-04T00:18:30.564Z,72.59
2018-07-04T00:21:29.747Z,71.43
2018-07-04T00:24:13.151Z,69.82
2018-07-04T00:26:57.369Z,70.42
2018-07-04T00:29:45.667Z,71.54
2018-07-04T00:32:36.834Z,73.10
2018-07-04T00:38:11.952Z,71.56
2018-07-04T00:40:58.647Z,72.57
2018-07-04T00:43:50.161Z,73.70
2018-07-04T00:49:25.528Z,73.81
2018-07-04T00:55:01.194Z,73.18
2018-07-04T01:00:39.480Z,73.51
2018-07-04T01:03:24.498Z,73.25
2018-07-04T01:06:08.068Z,72.41
2018-07-04T01:08:52.536Z,72.20
2018-07-04T01:11:38.224Z,72.98
2018-07-04T01:14:30.922Z,73.36
2018-07-04T01:17:16.762Z,73.39
2018-07-04T01:25:55.111Z,74.21
2018-07-04T01:31:35.497Z,74.56
2018-07-04T01:34:18.118Z,74.58
2018-07-04T01:37:01.082Z,74.74
2018-07-04T01:39:43.801Z,74.55
2018-07-04T01:42:25.841Z,74.16
2018-07-04T01:45:08.199Z,73.88
2018-07-04T01:47:47.800Z,74.54
2018-07-04T01:50:33.607Z,75.31
2018-07-04T01:53:18.405Z,75.35
2018-07-04T01:56:00.305Z,75.35
2018-07-04T01:58:44.563Z,74.79
2018-07-04T02:01:29.197Z,75.53
2018-07-04T02:04:10.314Z,75.11
2018-07-04T02:06:59.026Z,74.95
2018-07-04T02:09:39.646Z,75.05
2018-07-04T02:12:25.686Z,75.33
2018-07-04T02:15:16.919Z,76.45
2018-07-04T02:21:15.172Z,76.02
2018-07-04T02:24:03.442Z,76.42
2018-07-04T02:26:48.683Z,77.71
2018-07-04T02:32:42.562Z,76.26
2018-07-04T02:35:24.097Z,76.05
2018-07-04T02:40:58.696Z,76.92
2018-07-04T02:43:42.846Z,76.61
2018-07-04T02:46:30.497Z,75.87
2018-07-04T02:49:10.068Z,76.00
2018-07-04T02:51:58.867Z,74.75
2018-07-04T02:54:43.008Z,75.69
2018-07-04T02:57:26.319Z,77.72
2018-07-04T03:00:13.674Z,78.56
2018-07-04T03:02:55.879Z,77.65
2018-07-04T03:05:43.588Z,76.49
2018-07-04T03:08:25.000Z,76.25
2018-07-04T03:11:08.933Z,76.36
2018-07-04T03:13:54.314Z,76.24
2018-07-04T03:16:50.439Z,76.93
2018-07-04T03:19:32.022Z,76.67
2018-07-04T03:22:12.342Z,76.72
2018-07-04T03:24:56.086Z,77.53
2018-07-04T03:27:38.867Z,77.71
2018-07-04T03:30:21.927Z,78.66
2018-07-04T03:33:03.894Z,78.61
2018-07-04T03:35:44.737Z,78.24
2018-07-04T03:38:25.078Z,77.71
2018-07-04T03:41:06.394Z,77.92
2018-07-04T03:43:48.223Z,78.09
2018-07-04T03:46:29.195Z,79.32
2018-07-04T03:49:09.568Z,79.00
2018-07-04T03:51:53.407Z,78.94
2018-07-04T03:54:34.858Z,78.51
2018-07-04T03:57:16.526Z,78.45
2018-07-04T03:59:56.994Z,76.69
2018-07-04T04:02:37.770Z,76.16
2018-07-04T04:05:38.591Z,76.07
2018-07-04T04:08:24.022Z,75.84
2018-07-04T05:02:45.060Z,68.22
2018-07-04T05:05:25.848Z,67.61
2018-07-04T05:08:06.734Z,66.43
2018-07-04T05:10:46.986Z,65.79
2018-07-04T05:13:30.052Z,65.70
2018-07-04T05:19:33.700Z,65.31
2018-07-04T05:22:25.193Z,65.90
2018-07-04T05:25:23.012Z,65.40
2018-07-04T05:28:14.128Z,65.28
2018-07-04T05:30:58.788Z,64.53
2018-07-04T05:33:46.175Z,63.37
2018-07-04T05:36:33.178Z,62.71
2018-07-04T05:39:15.172Z,62.72
2018-07-04T05:45:15.830Z,62.67
2018-07-04T05:47:56.990Z,62.60
2018-07-04T05:50:37.383Z,62.98
2018-07-04T05:53:18.033Z,62.59
2018-07-04T05:55:58.149Z,62.92
2018-07-04T06:04:34.953Z,58.39
2018-07-04T06:13:54.552Z,59.13
2018-07-04T06:19:33.436Z,58.88
2018-07-04T06:22:13.051Z,58.77
2018-07-04T06:24:52.643Z,57.42
2018-07-04T06:27:32.202Z,56.47
2018-07-04T06:30:11.747Z,55.53
2018-07-04T06:32:51.343Z,53.55
2018-07-04T06:35:30.913Z,54.73
2018-07-04T06:37:58.133Z,55.14
2018-07-04T06:40:25.347Z,54.46
2018-07-04T06:42:52.538Z,53.99
2018-07-04T06:45:19.755Z,54.18
2018-07-04T06:47:46.928Z,52.93
2018-07-04T06:50:14.212Z,53.04
2018-07-04T06:52:41.414Z,51.31
2018-07-04T06:55:08.609Z,49.77
2018-07-04T06:57:35.924Z,50.01
2018-07-04T07:00:03.197Z,51.19
2018-07-04T07:02:30.423Z,48.98
2018-07-04T07:05:09.830Z,49.47
2018-07-04T07:07:49.277Z,47.71
2018-07-04T07:10:28.672Z,47.90
2018-07-04T07:13:08.099Z,45.04
2018-07-04T07:15:47.654Z,45.55
2018-07-04T07:18:27.125Z,46.30
2018-07-04T07:21:06.648Z,45.59
2018-07-04T07:23:46.101Z,44.18
2018-07-04T07:26:25.570Z,44.24
2018-07-04T07:29:05.059Z,47.28
2018-07-04T07:31:44.570Z,47.17
2018-07-04T07:34:24.082Z,46.95
2018-07-04T07:37:03.514Z,46.34
2018-07-04T07:39:43.083Z,45.27
2018-07-04T07:42:22.676Z,43.86
2018-07-04T07:45:02.514Z,44.29
2018-07-04T07:47:42.061Z,43.71
2018-07-04T07:50:21.574Z,44.81
2018-07-04T07:53:01.076Z,45.04
2018-07-04T07:55:40.477Z,44.04
2018-07-04T07:58:20.038Z,45.22
2018-07-04T08:00:59.619Z,45.46
2018-07-04T08:03:39.069Z,45.23
2018-07-04T08:06:18.514Z,45.70
2018-07-04T08:08:57.922Z,44.82
2018-07-04T08:11:37.495Z,44.85
2018-07-04T08:14:17.051Z,45.07
2018-07-04T08:16:56.465Z,43.21
2018-07-04T08:19:36.043Z,43.26
2018-07-04T08:22:15.324Z,43.05
2018-07-04T08:24:54.643Z,43.28
2018-07-04T08:27:34.196Z,43.87
2018-07-04T08:30:13.658Z,43.03
2018-07-04T08:32:53.302Z,41.64
2018-07-04T08:35:32.814Z,41.90
2018-07-04T08:38:12.391Z,42.53
2018-07-04T08:40:51.963Z,41.35
2018-07-04T08:43:31.426Z,39.71
2018-07-04T08:46:10.928Z,38.43
2018-07-04T08:48:50.377Z,38.96
2018-07-04T08:51:29.874Z,37.21
2018-07-04T08:54:09.228Z,36.52
2018-07-04T08:56:48.546Z,36.43
2018-07-04T08:59:28.306Z,33.22
2018-07-04T09:02:07.914Z,31.67
2018-07-04T09:04:47.443Z,28.78
2018-07-04T09:07:26.871Z,28.17
2018-07-04T09:10:06.443Z,28.81
2018-07-04T09:12:46.006Z,27.04
2018-07-04T09:15:25.538Z,27.40
2018-07-04T09:18:05.055Z,27.07
2018-07-04T09:20:44.627Z,27.71
2018-07-04T09:23:24.060Z,26.82
2018-07-04T09:26:03.566Z,27.50
2018-07-04T09:28:43.114Z,28.13
2018-07-04T09:31:22.676Z,27.99
2018-07-04T09:34:02.239Z,26.71
2018-07-04T09:36:41.785Z,28.55
2018-07-04T09:39:21.286Z,27.32
2018-07-04T09:42:00.760Z,26.31
2018-07-04T09:44:40.340Z,28.55
2018-07-04T09:47:19.861Z,27.64
2018-07-04T09:49:59.303Z,27.14
2018-07-04T09:52:38.840Z,26.98
2018-07-04T09:55:18.394Z,28.80
2018-07-04T09:57:57.996Z,29.40
2018-07-04T10:01:41.834Z,29.43
2018-07-04T10:04:21.374Z,30.18
2018-07-04T10:07:00.907Z,29.09
2018-07-04T10:09:40.267Z,29.40
2018-07-04T10:12:19.823Z,29.68
2018-07-04T10:14:59.291Z,28.97
2018-07-04T10:17:38.879Z,29.90
2018-07-04T10:20:18.562Z,29.54
2018-07-04T10:22:57.920Z,29.86
2018-07-04T10:25:37.394Z,29.57
2018-07-04T10:28:16.954Z,29.68
2018-07-04T10:30:56.502Z,30.31
2018-07-04T10:33:35.787Z,31.89
2018-07-04T10:36:15.302Z,30.34
2018-07-04T10:38:54.781Z,31.18
2018-07-04T10:41:34.294Z,30.54
2018-07-04T10:44:13.879Z,31.58
2018-07-04T10:46:53.299Z,32.25
2018-07-04T10:49:32.918Z,32.01
2018-07-04T10:52:12.514Z,31.32
2018-07-04T10:54:52.245Z,30.24
2018-07-04T10:57:31.766Z,30.31
2018-07-04T11:00:11.214Z,31.21
2018-07-04T11:02:50.663Z,32.86
2018-07-04T11:05:30.302Z,31.51
2018-07-04T11:08:09.773Z,31.39
2018-07-04T11:10:49.490Z,31.96
2018-07-04T11:13:28.870Z,30.20
2018-07-04T11:16:08.351Z,30.97
2018-07-04T11:18:47.988Z,32.34
2018-07-04T11:21:27.580Z,30.71
2018-07-04T11:24:07.382Z,31.00
2018-07-04T11:26:46.804Z,30.45
2018-07-04T11:29:26.207Z,31.81
2018-07-04T11:32:05.534Z,31.71
2018-07-04T11:34:45.035Z,31.97
2018-07-04T11:37:24.478Z,32.07
2018-07-04T11:40:03.926Z,30.63
2018-07-04T11:42:43.348Z,30.57
2018-07-04T11:45:22.790Z,30.73
2018-07-04T11:47:49.958Z,31.86
2018-07-04T11:50:17.179Z,30.57
2018-07-04T11:52:44.389Z,32.74
2018-07-04T11:55:11.727Z,31.71
2018-07-04T11:57:38.937Z,30.67
2018-07-04T12:00:07.139Z,31.46
2018-07-04T12:02:34.359Z,31.82
2018-07-04T12:05:13.866Z,31.67
2018-07-04T12:07:41.119Z,30.42
2018-07-04T12:10:08.305Z,31.62
2018-07-04T12:12:35.537Z,30.66
2018-07-04T12:15:02.723Z,30.58
2018-07-04T12:17:30.054Z,30.33
2018-07-04T12:19:57.247Z,30.73
2018-07-04T12:22:24.494Z,31.83
2018-07-04T12:24:51.670Z,31.30
2018-07-04T12:27:18.885Z,31.47
2018-07-04T12:29:46.070Z,31.20
2018-07-04T12:32:13.281Z,31.14
2018-07-04T12:34:40.471Z,31.77
2018-07-04T12:37:07.699Z,30.63
2018-07-04T12:39:34.878Z,31.43
2018-07-04T12:42:02.113Z,30.92
2018-07-04T12:44:29.308Z,30.57
2018-07-04T12:46:56.566Z,31.57
2018-07-04T12:49:26.071Z,30.70
2018-07-04T12:51:53.495Z,31.16
2018-07-04T12:54:26.065Z,30.87
2018-07-04T12:57:05.591Z,30.77
2018-07-04T12:59:45.130Z,30.92
2018-07-04T13:02:24.672Z,30.50
2018-07-04T13:05:04.174Z,30.35
2018-07-04T13:07:43.700Z,30.02
2018-07-04T13:10:23.284Z,29.77
2018-07-04T13:13:02.849Z,28.79
2018-07-04T13:15:42.399Z,29.96
2018-07-04T13:18:21.815Z,29.23
2018-07-04T13:21:01.222Z,30.00
2018-07-04T13:23:40.752Z,31.14
2018-07-04T13:26:20.174Z,30.46
2018-07-04T13:28:59.674Z,30.28
2018-07-04T13:31:39.210Z,30.85
2018-07-04T13:34:18.815Z,30.42
2018-07-04T13:36:58.118Z,29.46
2018-07-04T13:39:37.598Z,29.00
2018-07-04T13:42:17.077Z,28.96
2018-07-04T13:44:56.445Z,29.20
2018-07-04T13:47:35.871Z,30.25
2018-07-04T13:50:15.258Z,28.76
2018-07-04T13:52:54.690Z,28.94
2018-07-04T13:55:34.315Z,27.88
2018-07-04T13:58:13.651Z,29.23
2018-07-04T14:00:53.150Z,30.28
2018-07-04T14:03:32.520Z,28.51
2018-07-04T14:06:11.986Z,29.48
2018-07-04T14:08:51.382Z,29.36
2018-07-04T14:11:30.782Z,29.26
2018-07-04T14:14:10.251Z,29.34
2018-07-04T14:16:49.810Z,29.52
2018-07-04T14:19:29.156Z,28.94
2018-07-04T14:22:08.675Z,30.86
2018-07-04T14:24:48.166Z,29.12
2018-07-04T14:27:28.506Z,27.66
2018-07-04T14:30:07.963Z,28.55
2018-07-04T14:32:47.405Z,29.06
2018-07-04T14:35:26.919Z,28.92
2018-07-04T14:38:06.278Z,28.14
2018-07-04T14:40:45.863Z,28.81
2018-07-04T14:43:25.311Z,29.65
2018-07-04T14:46:04.745Z,27.49
2018-07-04T14:48:44.237Z,29.26
2018-07-04T14:51:24.104Z,29.10
2018-07-04T14:54:03.716Z,29.03
2018-07-04T14:56:43.211Z,28.44
2018-07-04T14:59:22.626Z,28.36
2018-07-04T15:02:02.054Z,27.83
2018-07-04T15:04:41.724Z,28.33
2018-07-04T15:07:21.037Z,30.20
2018-07-04T15:10:00.567Z,28.29
2018-07-04T15:12:40.008Z,27.86
2018-07-04T15:15:19.574Z,28.26
2018-07-04T15:17:59.033Z,27.25
2018-07-04T15:20:38.485Z,27.43
2018-07-04T15:23:17.937Z,27.87
2018-07-04T15:25:57.261Z,28.65
2018-07-04T15:28:36.807Z,29.07
2018-07-04T15:31:16.344Z,28.39
2018-07-04T15:33:56.075Z,27.98
2018-07-04T15:36:35.583Z,28.20
2018-07-04T15:39:14.902Z,28.15
2018-07-04T15:41:54.442Z,27.62
2018-07-04T15:44:34.141Z,28.14
2018-07-04T15:47:13.703Z,28.46
2018-07-04T15:49:53.274Z,28.88
2018-07-04T15:52:32.788Z,28.93
2018-07-04T15:55:12.267Z,28.33
2018-07-04T15:57:51.934Z,30.06
2018-07-04T16:00:31.466Z,29.75
2018-07-04T16:03:11.038Z,29.04
2018-07-04T16:05:50.859Z,29.14
2018-07-04T16:08:30.206Z,28.54
2018-07-04T16:11:09.660Z,28.51
2018-07-04T16:13:49.118Z,27.71
2018-07-04T16:16:28.510Z,28.87
2018-07-04T16:19:07.983Z,29.57
2018-07-04T16:21:48.543Z,29.97
2018-07-04T16:24:28.106Z,28.68
2018-07-04T16:27:07.615Z,30.29
2018-07-04T16:29:47.043Z,29.74
2018-07-04T16:32:26.557Z,29.69
2018-07-04T16:35:05.989Z,30.04
2018-07-04T16:37:45.338Z,29.49
2018-07-04T16:40:24.903Z,29.07
2018-07-04T16:43:04.434Z,29.44
2018-07-04T16:45:43.770Z,28.22
2018-07-04T16:48:23.346Z,29.83
2018-07-04T16:51:02.813Z,28.61
2018-07-04T16:53:42.350Z,28.84
2018-07-04T16:56:22.033Z,29.44
2018-07-04T16:59:01.544Z,29.77
2018-07-04T17:01:41.010Z,28.78
2018-07-04T17:04:20.636Z,28.48
2018-07-04T17:06:59.959Z,28.97
2018-07-04T17:09:39.371Z,32.18
2018-07-04T17:12:18.943Z,33.57
2018-07-04T17:14:58.479Z,33.77
2018-07-04T17:17:38.067Z,31.11
2018-07-04T17:20:17.607Z,32.49
2018-07-04T17:22:57.126Z,32.37
2018-07-04T17:25:36.686Z,32.26
2018-07-04T17:28:16.266Z,33.32
2018-07-04T17:30:55.899Z,36.03
2018-07-04T17:33:35.328Z,38.62
2018-07-04T17:36:14.906Z,40.24
2018-07-04T17:38:54.357Z,42.13
2018-07-04T17:41:36.901Z,42.63
2018-07-04T17:44:16.558Z,44.56
2018-07-04T17:46:56.752Z,43.92
2018-07-04T17:49:36.038Z,44.39
2018-07-04T17:52:15.758Z,45.88
2018-07-04T17:54:55.055Z,46.03
2018-07-04T17:57:34.598Z,45.48
2018-07-04T18:00:14.122Z,45.66
2018-07-04T18:02:53.573Z,43.99
2018-07-04T18:05:33.017Z,41.58
2018-07-04T18:08:12.560Z,41.90
2018-07-04T18:10:52.001Z,42.46
2018-07-04T18:13:31.578Z,41.63
2018-07-04T18:16:11.158Z,42.13
2018-07-04T18:18:50.702Z,41.72
2018-07-04T18:21:30.187Z,41.97
2018-07-04T18:24:09.646Z,42.18
2018-07-04T18:26:49.287Z,43.20
2018-07-04T18:29:28.830Z,45.27
2018-07-04T18:32:08.283Z,45.13
2018-07-04T18:34:47.723Z,45.79
2018-07-04T18:37:27.682Z,47.40
2018-07-04T18:40:07.215Z,49.77
2018-07-04T18:42:46.866Z,50.47
2018-07-04T18:45:26.310Z,49.07
2018-07-04T18:48:05.927Z,48.50
2018-07-04T18:50:45.511Z,49.47
2018-07-04T18:53:24.943Z,49.86
2018-07-04T18:56:04.346Z,51.68
2018-07-04T18:58:44.781Z,51.33
2018-07-04T19:01:24.331Z,50.81
2018-07-04T19:04:03.846Z,50.87
2018-07-04T19:06:43.289Z,50.75
2018-07-04T19:09:22.701Z,51.63
2018-07-04T19:12:02.310Z,51.09
2018-07-04T19:14:41.775Z,50.66
2018-07-04T19:17:21.210Z,51.85
2018-07-04T19:20:00.650Z,52.19
2018-07-04T19:22:40.111Z,52.56
2018-07-04T19:25:19.633Z,52.60
2018-07-04T19:27:59.078Z,52.87
2018-07-04T19:30:38.635Z,54.50
2018-07-04T19:33:18.398Z,52.97
2018-07-04T19:35:57.864Z,52.45
2018-07-04T19:38:37.391Z,52.81
2018-07-04T19:41:16.914Z,52.09
2018-07-04T19:43:56.335Z,52.19
2018-07-04T19:55:50.183Z,51.15
2018-07-04T19:58:29.867Z,50.41
2018-07-04T20:01:09.643Z,51.24
2018-07-04T20:03:49.443Z,52.44
2018-07-04T20:06:29.191Z,53.10
2018-07-04T20:09:08.987Z,53.76
2018-07-04T20:11:48.743Z,53.24
2018-07-04T20:14:28.377Z,54.11
2018-07-04T20:17:07.996Z,52.89
2018-07-04T20:19:47.711Z,52.35
2018-07-04T20:22:27.521Z,52.68
2018-07-04T20:25:07.108Z,52.91
2018-07-04T20:27:46.690Z,51.90
2018-07-04T20:30:26.326Z,52.26
2018-07-04T20:33:06.063Z,52.03
2018-07-04T20:35:45.601Z,51.14
2018-07-04T20:38:25.203Z,52.23
2018-07-04T20:41:04.991Z,52.26
2018-07-04T20:43:44.673Z,50.85
2018-07-04T20:46:28.921Z,49.62
2018-07-04T20:49:08.572Z,50.75
2018-07-04T20:51:48.306Z,51.72
2018-07-04T20:54:28.129Z,51.04
2018-07-04T20:57:07.670Z,51.46
2018-07-04T20:59:47.390Z,51.46
2018-07-04T21:02:27.210Z,51.94
2018-07-04T21:05:07.013Z,50.74
2018-07-04T21:07:46.731Z,52.14
2018-07-04T21:10:26.526Z,51.45
2018-07-04T21:13:06.338Z,52.18
2018-07-04T21:15:45.967Z,52.36
2018-07-04T21:18:25.738Z,52.83
2018-07-04T21:21:05.370Z,53.18
2018-07-04T21:23:44.898Z,52.39
2018-07-04T21:26:24.418Z,52.04
2018-07-04T21:29:04.070Z,52.20
2018-07-04T21:31:43.562Z,52.83
2018-07-04T21:34:23.271Z,53.40
2018-07-04T21:37:02.912Z,53.39
2018-07-04T21:39:42.557Z,53.55
2018-07-04T21:42:22.366Z,54.24
2018-07-04T21:45:02.035Z,53.85
2018-07-04T21:47:41.707Z,54.87
2018-07-04T21:50:21.502Z,54.62
2018-07-04T21:53:01.235Z,54.57
2018-07-04T21:55:40.872Z,54.22
2018-07-04T21:58:20.547Z,53.72
2018-07-04T22:01:00.310Z,54.13
2018-07-04T22:03:40.316Z,55.19
2018-07-04T22:06:20.295Z,55.65
2018-07-04T22:08:59.903Z,55.55
2018-07-04T22:11:39.792Z,56.46
2018-07-04T22:14:19.598Z,56.76
2018-07-04T22:16:59.163Z,56.94
2018-07-04T22:19:38.914Z,56.31
2018-07-04T22:22:18.649Z,58.42
2018-07-04T22:24:58.210Z,59.45
2018-07-04T22:27:38.082Z,60.00
2018-07-04T22:30:17.785Z,60.75
2018-07-04T22:32:57.409Z,62.75
2018-07-04T22:35:37.051Z,62.76
2018-07-04T22:38:16.741Z,63.41
2018-07-04T22:40:56.527Z,63.80
2018-07-04T22:43:36.287Z,63.06
2018-07-04T22:46:16.046Z,64.79
2018-07-04T22:48:55.769Z,65.92
2018-07-04T22:51:35.466Z,65.68
2018-07-04T22:54:15.109Z,64.93
2018-07-04T22:56:54.744Z,65.45
2018-07-04T22:59:34.522Z,64.13
2018-07-04T23:02:14.287Z,64.48
2018-07-04T23:04:53.938Z,64.12
2018-07-04T23:07:33.590Z,63.73
2018-07-04T23:10:13.141Z,64.83
2018-07-04T23:12:52.967Z,65.19
2018-07-04T23:15:32.594Z,64.87
2018-07-04T23:18:12.293Z,65.30
2018-07-04T23:20:51.939Z,64.10
2018-07-04T23:23:31.722Z,63.50
2018-07-04T23:26:11.377Z,62.95
2018-07-04T23:28:51.157Z,63.07
2018-07-04T23:31:30.925Z,65.08
2018-07-04T23:34:10.721Z,63.64
2018-07-04T23:36:50.469Z,64.46
2018-07-04T23:39:30.158Z,63.61
2018-07-04T23:42:09.859Z,62.42
2018-07-04T23:44:49.663Z,61.65
2018-07-04T23:47:29.533Z,60.92
2018-07-04T23:50:09.362Z,63.12
2018-07-04T23:52:49.024Z,63.66
2018-07-04T23:55:28.797Z,61.94
2018-07-04T23:58:08.324Z,62.08
